Time;durP1;ratioP1;P1;durP2;ratioP2;P2;SDS_P1;SDS_P2;PMS_P1;PMS_P2;Temp;Humidity;BMP_temperature;BMP_pressure;BME280_temperature;BME280_humidity;BME280_pressure;Samples;Min_cycle;Max_cycle;Signal;HPM_P1;HPM_P2
2023/08/24 00:01:56;;;;;;;;;;;;;;;29.39;34.64;100685.00;5056042;28;1039;-32
2023/08/24 00:04:22;;;;;;;;;;;;;;;29.43;34.57;100692.53;5055887;28;895;-31
2023/08/24 00:06:48;;;;;;;;;;;;;;;29.53;34.29;100692.16;5055661;28;1207;-33
2023/08/24 00:09:15;;;;;;;;;;;;;;;29.57;34.34;100692.59;5058891;28;1135;-32
2023/08/24 00:11:40;;;;;;;;;;;;;;;29.51;34.47;100698.81;5059438;28;1914;-37
2023/08/24 00:14:06;;;;;;;;;;;;;;;29.35;34.81;100695.41;5059966;28;1129;-32
2023/08/24 00:16:32;;;;;;;;;;;;;;;29.54;34.44;100685.72;5059504;28;1020;-34
2023/08/24 00:18:57;;;;;;;;;;;;;;;29.38;34.74;100684.16;5059476;28;1179;-35
2023/08/24 00:21:23;;;;;;;;;;;;;;;29.40;34.40;100689.38;5059600;28;1218;-30
2023/08/24 00:23:49;;;;;;;;;;;;;;;29.25;35.02;100690.34;5059670;28;1036;-31
2023/08/24 00:26:16;;;;;;;;;;;;;;;29.41;34.50;100686.47;5059667;28;1048;-33
2023/08/24 00:28:42;;;;;;;;;;;;;;;29.41;34.27;100688.34;5059357;28;902;-34
2023/08/24 00:31:08;;;;;;;;;;;;;;;29.40;34.47;100690.22;5059156;28;1910;-31
2023/08/24 00:33:33;;;;;;;;;;;;;;;29.35;34.72;100687.28;5041438;28;1025;-35
2023/08/24 00:36:00;;;;;;;;;;;;;;;29.49;34.12;100687.34;5059322;28;1064;-32
2023/08/24 00:38:25;;;;;;;;;;;;;;;29.39;34.57;100685.84;5059133;28;1103;-34
2023/08/24 00:40:52;;;;;;;;;;;;;;;29.39;34.56;100688.56;5040987;28;1153;-34
2023/08/24 00:43:22;;;;;;;;;;;;;;;29.47;34.31;100692.97;5041699;28;1183;-33
2023/08/24 00:45:48;;;;;;;;;;;;;;;29.33;34.53;100686.63;5058870;28;1116;-32
2023/08/24 00:48:13;;;;;;;;;;;;;;;29.45;34.43;100690.47;5041525;28;1121;-34
2023/08/24 00:50:39;;;;;;;;;;;;;;;29.43;34.54;100686.25;5041132;28;1910;-31
2023/08/24 00:53:04;;;;;;;;;;;;;;;29.33;34.58;100686.63;5058821;28;851;-31
2023/08/24 00:55:30;;;;;;;;;;;;;;;29.31;34.59;100684.13;5059101;28;1254;-33
2023/08/24 00:57:56;;;;;;;;;;;;;;;29.28;34.37;100689.13;5059003;28;1181;-31
2023/08/24 01:00:21;;;;;;;;;;;;;;;29.34;34.17;100682.91;5041109;28;1103;-34
2023/08/24 01:02:47;;;;;;;;;;;;;;;29.38;34.39;100676.03;5040640;28;1139;-35
2023/08/24 01:05:13;;;;;;;;;;;;;;;29.42;34.13;100677.31;5061565;28;941;-34
2023/08/24 01:07:39;;;;;;;;;;;;;;;29.46;33.89;100680.47;5051114;28;1075;-32
2023/08/24 01:10:06;;;;;;;;;;;;;;;29.42;34.06;100673.75;5058856;28;1905;-33
2023/08/24 01:12:41;;;;;;;;;;;;;;;29.48;33.77;100678.38;5020961;28;1242;-30
2023/08/24 01:15:25;;;;;;;;;;;;;;;29.37;34.05;100673.53;5056493;28;1064;-34
2023/08/24 01:17:50;;;;;;;;;;;;;;;29.33;34.44;100667.66;5058599;28;1163;-33
2023/08/24 01:20:16;;;;;;;;;;;;;;;29.45;33.90;100670.63;5039448;28;1211;-33
2023/08/24 01:22:55;;;;;;;;;;;;;;;29.42;34.15;100665.63;5023629;28;1106;-33
2023/08/24 01:25:24;;;;;;;;;;;;;;;29.34;34.05;100663.94;5058333;28;1065;-34
2023/08/24 01:27:50;;;;;;;;;;;;;;;29.52;33.63;100662.53;5023641;28;1029;-32
2023/08/24 01:30:17;;;;;;;;;;;;;;;29.40;34.30;100667.69;5024348;28;1906;-31
2023/08/24 01:32:43;;;;;;;;;;;;;;;29.43;33.74;100657.28;5039923;28;1128;-31
2023/08/24 01:35:09;;;;;;;;;;;;;;;29.45;33.95;100655.22;5040304;28;1044;-32
2023/08/24 01:37:37;;;;;;;;;;;;;;;29.40;34.10;100656.84;5058024;28;1000;-34
2023/08/24 01:40:09;;;;;;;;;;;;;;;29.38;34.07;100645.41;5023522;28;1073;-32
2023/08/24 01:42:35;;;;;;;;;;;;;;;29.43;33.93;100657.28;5040580;28;1144;-34
2023/08/24 01:45:01;;;;;;;;;;;;;;;29.51;34.08;100644.63;5057839;28;1043;-31
2023/08/24 01:47:27;;;;;;;;;;;;;;;29.39;33.97;100650.63;5040406;28;1227;-33
2023/08/24 01:49:52;;;;;;;;;;;;;;;29.48;33.76;100651.25;5058119;28;1984;-31
2023/08/24 01:52:18;;;;;;;;;;;;;;;29.33;33.88;100644.13;5039590;28;1191;-32
2023/08/24 01:54:43;;;;;;;;;;;;;;;29.25;34.40;100643.44;5040204;28;1052;-29
2023/08/24 01:57:09;;;;;;;;;;;;;;;29.25;34.33;100641.56;5058046;28;1109;-32
2023/08/24 01:59:34;;;;;;;;;;;;;;;29.37;34.13;100635.59;5040207;28;1184;-30
2023/08/24 02:02:00;;;;;;;;;;;;;;;29.33;34.32;100645.97;5039811;28;1091;-33
2023/08/24 02:04:26;;;;;;;;;;;;;;;29.32;34.00;100639.75;5057513;28;1019;-33
2023/08/24 02:06:51;;;;;;;;;;;;;;;29.20;34.21;100639.47;5039908;28;1308;-30
2023/08/24 02:09:17;;;;;;;;;;;;;;;29.23;34.21;100640.13;5057603;28;1020;-30
2023/08/24 02:11:42;;;;;;;;;;;;;;;29.15;34.49;100635.69;5057523;28;1910;-30
2023/08/24 02:14:08;;;;;;;;;;;;;;;29.22;34.52;100639.28;5039238;28;1068;-33
2023/08/24 02:16:36;;;;;;;;;;;;;;;29.19;34.33;100637.81;5039166;28;2029;-33
2023/08/24 02:19:02;;;;;;;;;;;;;;;29.15;34.24;100636.53;5057644;28;1272;-31
2023/08/24 02:21:29;;;;;;;;;;;;;;;29.16;34.19;100640.91;5056985;28;1104;-32
2023/08/24 02:23:55;;;;;;;;;;;;;;;29.14;34.29;100640.28;5039064;28;1160;-33
2023/08/24 02:26:21;;;;;;;;;;;;;;;29.12;34.21;100638.78;5039265;28;1119;-33
2023/08/24 02:28:46;;;;;;;;;;;;;;;29.15;34.14;100643.81;5039054;28;1350;-30
2023/08/24 02:31:12;;;;;;;;;;;;;;;29.15;34.19;100649.22;5056887;28;1914;-32
2023/08/24 02:33:37;;;;;;;;;;;;;;;29.08;33.99;100647.31;5057349;28;1008;-35
2023/08/24 02:36:03;;;;;;;;;;;;;;;29.15;34.21;100649.22;5056835;28;1012;-32
2023/08/24 02:38:28;;;;;;;;;;;;;;;29.13;34.19;100646.72;5057126;28;1028;-31
2023/08/24 02:41:01;;;;;;;;;;;;;;;29.10;34.13;100647.13;5056683;28;1164;-34
2023/08/24 02:43:27;;;;;;;;;;;;;;;29.09;34.33;100643.56;5057009;28;1108;-31
2023/08/24 02:45:53;;;;;;;;;;;;;;;29.10;34.32;100647.13;5038984;28;1362;-33
2023/08/24 02:48:19;;;;;;;;;;;;;;;29.06;34.12;100646.69;5057025;28;1123;-35
2023/08/24 02:50:47;;;;;;;;;;;;;;;28.99;34.39;100642.25;5056561;28;1902;-31
2023/08/24 02:53:13;;;;;;;;;;;;;;;28.98;34.46;100646.84;5056724;28;841;-33
2023/08/24 02:55:39;;;;;;;;;;;;;;;29.02;34.30;100647.28;5056615;28;1134;-33
2023/08/24 02:58:04;;;;;;;;;;;;;;;29.02;34.26;100637.28;5038639;28;1148;-33
2023/08/24 03:00:30;;;;;;;;;;;;;;;29.01;34.16;100635.59;5038560;28;1036;-31
2023/08/24 03:02:56;;;;;;;;;;;;;;;29.06;33.96;100635.03;5056795;28;1019;-34
2023/08/24 03:05:21;;;;;;;;;;;;;;;29.01;34.19;100637.50;5056128;28;1039;-32
2023/08/24 03:07:47;;;;;;;;;;;;;;;29.06;33.89;100638.56;5056694;28;1492;-32
2023/08/24 03:10:12;;;;;;;;;;;;;;;29.00;34.11;100643.91;5038468;28;1906;-30
2023/08/24 03:12:38;;;;;;;;;;;;;;;29.06;33.95;100638.56;5043201;28;1114;-32
2023/08/24 03:15:05;;;;;;;;;;;;;;;28.68;34.65;100644.28;5065324;28;1111;-34
2023/08/24 03:17:32;;;;;;;;;;;;;;;28.53;35.65;100647.13;5038157;28;1275;-34
2023/08/24 03:19:58;;;;;;;;;;;;;;;28.27;36.81;100651.22;5038406;28;1346;-34
2023/08/24 03:22:23;;;;;;;;;;;;;;;27.67;36.90;100647.66;5038222;28;1264;-34
2023/08/24 03:24:49;;;;;;;;;;;;;;;27.42;36.97;100650.66;5056313;28;1024;-34
2023/08/24 03:27:14;;;;;;;;;;;;;;;27.47;38.05;100656.34;5038141;28;1072;-33
2023/08/24 03:29:41;;;;;;;;;;;;;;;27.56;36.58;100650.84;5056150;28;1148;-35
2023/08/24 03:32:06;;;;;;;;;;;;;;;27.42;36.72;100652.50;5038538;28;1918;-35
2023/08/24 03:34:32;;;;;;;;;;;;;;;27.64;38.21;100653.44;5038236;28;1045;-34
2023/08/24 03:36:57;;;;;;;;;;;;;;;27.66;39.50;100640.53;5038201;28;1194;-36
2023/08/24 03:39:23;;;;;;;;;;;;;;;27.37;42.50;100648.53;5056134;28;1106;-32
2023/08/24 03:41:49;;;;;;;;;;;;;;;27.47;37.18;100652.78;5038210;28;1284;-36
2023/08/24 03:44:14;;;;;;;;;;;;;;;27.15;37.25;100652.97;5041405;28;1029;-32
2023/08/24 03:46:40;;;;;;;;;;;;;;;27.70;37.14;100655.41;5042100;28;1104;-33
2023/08/24 03:49:05;;;;;;;;;;;;;;;27.44;37.82;100655.88;5059128;28;1337;-35
2023/08/24 03:51:31;;;;;;;;;;;;;;;27.45;37.78;100658.38;5062039;28;1990;-34
2023/08/24 03:53:58;;;;;;;;;;;;;;;27.70;39.29;100660.81;5051157;28;1122;-32
2023/08/24 03:56:23;;;;;;;;;;;;;;;28.02;38.93;100652.44;5062030;28;1161;-32
2023/08/24 03:58:49;;;;;;;;;;;;;;;27.63;40.29;100659.84;5033540;28;1159;-30
2023/08/24 04:01:16;;;;;;;;;;;;;;;27.39;38.86;100649.16;5038955;28;1727;-33
2023/08/24 04:03:41;;;;;;;;;;;;;;;26.80;42.61;100656.16;5038622;28;1240;-35
2023/08/24 04:06:07;;;;;;;;;;;;;;;26.71;42.80;100651.88;5039033;28;2469;-36
2023/08/24 04:08:33;;;;;;;;;;;;;;;26.85;41.14;100650.22;5039509;28;2328;-35
2023/08/24 04:11:00;;;;;;;;;;;;;;;27.05;39.39;100653.25;5037672;28;2116;-35
2023/08/24 04:13:26;;;;;;;;;;;;;;;27.45;40.47;100657.53;5038231;28;1878;-34
2023/08/24 04:15:51;;;;;;;;;;;;;;;27.51;41.67;100652.22;5037800;28;2162;-32
2023/08/24 04:18:17;;;;;;;;;;;;;;;27.90;38.63;100654.78;5038681;28;2094;-33
2023/08/24 04:20:42;;;;;;;;;;;;;;;27.68;37.17;100646.63;5036803;28;2073;-31
2023/08/24 04:23:10;;;;;;;;;;;;;;;27.69;37.21;100658.28;5019323;28;1270;-35
2023/08/24 04:25:38;;;;;;;;;;;;;;;27.63;37.06;100663.38;5032377;28;1317;-32
2023/08/24 04:28:04;;;;;;;;;;;;;;;27.61;36.94;100664.63;5023410;28;1266;-29
2023/08/24 04:30:30;;;;;;;;;;;;;;;27.57;36.56;100666.00;5038675;28;1902;-33
2023/08/24 04:32:56;;;;;;;;;;;;;;;27.56;36.84;100659.75;5025994;28;1349;-34
2023/08/24 04:35:24;;;;;;;;;;;;;;;27.61;36.62;100659.22;5027356;28;1301;-30
2023/08/24 04:37:50;;;;;;;;;;;;;;;27.53;36.95;100659.31;5034237;28;1235;-30
2023/08/24 04:40:15;;;;;;;;;;;;;;;27.58;36.32;100659.56;5029754;28;1302;-31
2023/08/24 04:42:41;;;;;;;;;;;;;;;27.55;36.57;100668.91;5022021;28;1064;-34
2023/08/24 04:45:07;;;;;;;;;;;;;;;27.89;36.66;100661.25;5018879;28;1263;-30
2023/08/24 04:47:33;;;;;;;;;;;;;;;27.95;36.75;100662.31;5018893;28;1349;-31
2023/08/24 04:49:58;;;;;;;;;;;;;;;27.67;36.54;100666.56;5021450;28;2429;-32
2023/08/24 04:52:24;;;;;;;;;;;;;;;27.62;36.19;100661.72;5034292;28;1376;-31
2023/08/24 04:54:49;;;;;;;;;;;;;;;27.64;36.11;100661.53;5024793;28;1048;-30
2023/08/24 04:57:15;;;;;;;;;;;;;;;27.62;35.86;100659.03;5031391;28;1369;-31
2023/08/24 04:59:40;;;;;;;;;;;;;;;27.57;35.81;100658.75;5059308;28;1310;-36
2023/08/24 05:02:06;;;;;;;;;;;;;;;27.43;36.24;100657.72;5077744;28;1415;-34
2023/08/24 05:04:33;;;;;;;;;;;;;;;27.56;36.19;100667.84;5077969;28;1353;-31
2023/08/24 05:06:58;;;;;;;;;;;;;;;27.54;36.54;100666.38;5055152;28;1474;-33
2023/08/24 05:09:24;;;;;;;;;;;;;;;27.63;36.12;100674.19;5038321;28;1383;-30
2023/08/24 05:11:49;;;;;;;;;;;;;;;27.84;36.44;100667.19;5069956;28;1918;-31
2023/08/24 05:14:15;;;;;;;;;;;;;;;27.99;35.81;100669.84;5076471;28;1305;-30
2023/08/24 05:16:41;;;;;;;;;;;;;;;27.78;36.28;100669.84;5057730;28;1337;-33
2023/08/24 05:19:06;;;;;;;;;;;;;;;27.67;36.16;100671.13;5066547;28;1103;-30
2023/08/24 05:21:32;;;;;;;;;;;;;;;27.62;36.00;100666.28;5076656;28;2543;-31
2023/08/24 05:23:58;;;;;;;;;;;;;;;27.84;35.54;100671.78;5072146;28;1403;-34
2023/08/24 05:26:24;;;;;;;;;;;;;;;27.92;35.34;100670.81;5043038;28;1430;-29
2023/08/24 05:28:50;;;;;;;;;;;;;;;27.80;35.42;100679.41;5059612;28;1176;-31
2023/08/24 05:31:15;;;;;;;;;;;;;;;27.90;35.79;100683.69;5041399;28;1983;-34
2023/08/24 05:33:41;;;;;;;;;;;;;;;27.92;35.72;100685.19;5054425;28;1350;-33
2023/08/24 05:36:07;;;;;;;;;;;;;;;27.90;36.09;100678.28;5067334;28;1309;-35
2023/08/24 05:38:32;;;;;;;;;;;;;;;27.86;36.52;100686.75;5077906;28;1317;-32
2023/08/24 05:40:58;;;;;;;;;;;;;;;28.15;36.58;100680.63;5077476;28;1027;-33
2023/08/24 05:43:24;;;;;;;;;;;;;;;28.28;36.62;100688.88;5057014;28;879;-32
2023/08/24 05:45:50;;;;;;;;;;;;;;;27.92;37.39;100685.19;5076493;28;1116;-31
2023/08/24 05:48:15;;;;;;;;;;;;;;;27.85;37.04;100687.81;5077747;28;1115;-34
2023/08/24 05:50:44;;;;;;;;;;;;;;;27.70;37.18;100679.72;5074350;28;2532;-29
2023/08/24 05:53:10;;;;;;;;;;;;;;;27.77;37.09;100678.97;5076598;28;1093;-31
2023/08/24 05:55:35;;;;;;;;;;;;;;;27.89;36.61;100684.72;5063324;28;1133;-34
2023/08/24 05:58:01;;;;;;;;;;;;;;;27.75;36.78;100685.41;5076922;28;1187;-30
2023/08/24 06:00:26;;;;;;;;;;;;;;;27.90;36.96;100684.53;5076652;28;1039;-34
2023/08/24 06:02:52;;;;;;;;;;;;;;;27.98;36.65;100688.97;5076871;28;1027;-32
2023/08/24 06:05:18;;;;;;;;;;;;;;;27.97;36.93;100688.16;5075204;28;1190;-29
2023/08/24 06:07:44;;;;;;;;;;;;;;;27.98;37.38;100692.53;5057221;28;1207;-32
2023/08/24 06:10:09;;;;;;;;;;;;;;;27.93;38.09;100694.09;5052367;28;1971;-31
2023/08/24 06:12:35;;;;;;;;;;;;;;;27.75;38.69;100693.50;5068356;28;1081;-30
2023/08/24 06:15:03;;;;;;;;;;;;;;;27.77;38.79;100695.19;5050544;28;1116;-32
2023/08/24 06:17:29;;;;;;;;;;;;;;;28.14;38.57;100695.19;5074519;28;1070;-31
2023/08/24 06:19:54;;;;;;;;;;;;;;;28.22;38.57;100697.78;5056729;28;2390;-30
2023/08/24 06:22:20;;;;;;;;;;;;;;;28.34;38.63;100696.25;5074337;28;1059;-31
2023/08/24 06:24:45;;;;;;;;;;;;;;;28.44;38.50;100700.53;5076376;28;1368;-32
2023/08/24 06:27:11;;;;;;;;;;;;;;;28.52;38.36;100697.69;5052283;28;1170;-35
2023/08/24 06:29:36;;;;;;;;;;;;;;;28.62;38.48;100696.50;5070510;28;1063;-32
2023/08/24 06:32:02;;;;;;;;;;;;;;;28.60;38.49;100702.97;5056682;28;1978;-30
2023/08/24 06:34:28;;;;;;;;;;;;;;;28.60;38.80;100704.81;5073713;28;1119;-32
2023/08/24 06:36:53;;;;;;;;;;;;;;;28.58;38.91;100701.47;5076282;28;1214;-30
2023/08/24 06:39:19;;;;;;;;;;;;;;;28.58;39.12;100699.59;5076095;28;1190;-33
2023/08/24 06:41:44;;;;;;;;;;;;;;;28.62;39.08;100702.75;5073857;28;1139;-32
2023/08/24 06:44:10;;;;;;;;;;;;;;;28.54;39.29;100700.19;5073272;28;1028;-31
2023/08/24 06:46:35;;;;;;;;;;;;;;;28.61;38.91;100701.09;5076541;28;1099;-30
2023/08/24 06:49:01;;;;;;;;;;;;;;;28.65;39.44;100705.06;5075868;28;1250;-35
2023/08/24 06:51:27;;;;;;;;;;;;;;;28.62;39.28;100702.75;5070198;28;2616;-29
2023/08/24 06:53:52;;;;;;;;;;;;;;;28.69;39.65;100711.78;5073218;28;1120;-31
2023/08/24 06:56:18;;;;;;;;;;;;;;;28.62;39.70;100710.88;5056555;28;1028;-30
2023/08/24 06:58:44;;;;;;;;;;;;;;;28.73;39.11;100706.81;5069018;28;1052;-29
2023/08/24 07:01:10;;;;;;;;;;;;;;;28.70;39.63;100699.91;5055769;28;1155;-33
2023/08/24 07:03:36;;;;;;;;;;;;;;;28.78;39.90;100701.66;5073497;28;1004;-31
2023/08/24 07:06:02;;;;;;;;;;;;;;;28.83;40.31;100701.91;5072755;28;1062;-30
2023/08/24 07:08:27;;;;;;;;;;;;;;;28.81;40.29;100703.13;5060148;28;1183;-29
2023/08/24 07:10:53;;;;;;;;;;;;;;;28.84;40.40;100708.16;5075864;28;1909;-31
2023/08/24 07:13:18;;;;;;;;;;;;;;;28.70;40.72;100702.63;5075228;28;1051;-33
2023/08/24 07:15:45;;;;;;;;;;;;;;;28.72;40.85;100714.09;5075978;28;1151;-31
2023/08/24 07:18:10;;;;;;;;;;;;;;;28.82;40.56;100715.63;5071316;28;1016;-31
2023/08/24 07:20:36;;;;;;;;;;;;;;;28.82;40.96;100705.66;5055547;28;2294;-32
2023/08/24 07:23:02;;;;;;;;;;;;;;;28.77;40.67;100715.38;5073258;28;1160;-30
2023/08/24 07:25:28;;;;;;;;;;;;;;;28.66;40.96;100717.56;5075664;28;1071;-32
2023/08/24 07:27:58;;;;;;;;;;;;;;;28.64;40.66;100719.66;5075362;28;1194;-34
2023/08/24 07:30:24;;;;;;;;;;;;;;;28.34;40.61;100726.00;5071227;28;1910;-32
2023/08/24 07:32:50;;;;;;;;;;;;;;;28.51;41.01;100722.22;5058970;28;1017;-32
2023/08/24 07:35:16;;;;;;;;;;;;;;;28.79;40.74;100716.03;5062867;28;1044;-32
2023/08/24 07:37:41;;;;;;;;;;;;;;;28.92;40.34;100721.56;5035293;28;1364;-33
2023/08/24 07:40:08;;;;;;;;;;;;;;;29.02;39.76;100726.66;5035649;28;1326;-31
2023/08/24 07:42:42;;;;;;;;;;;;;;;29.19;40.30;100719.06;5048054;28;1123;-31
2023/08/24 07:45:08;;;;;;;;;;;;;;;29.05;41.67;100720.84;5059264;28;1084;-32
2023/08/24 07:47:33;;;;;;;;;;;;;;;28.96;39.49;100717.41;5075596;28;1004;-34
2023/08/24 07:49:59;;;;;;;;;;;;;;;29.14;38.68;100717.97;5071629;28;1995;-32
2023/08/24 07:52:27;;;;;;;;;;;;;;;29.20;40.09;100718.03;5065598;28;1910;-34
2023/08/24 07:54:52;;;;;;;;;;;;;;;29.20;39.03;100723.44;5067826;28;1066;-33
2023/08/24 07:57:18;;;;;;;;;;;;;;;29.34;39.53;100729.78;5065697;28;1107;-33
2023/08/24 07:59:43;;;;;;;;;;;;;;;29.33;40.84;100727.25;5074715;28;1182;-36
2023/08/24 08:02:09;;;;;;;;;;;;;;;29.45;41.01;100725.69;5075297;28;1115;-32
2023/08/24 08:04:35;;;;;;;;;;;;;;;29.34;41.23;100718.94;5074757;28;1067;-34
2023/08/24 08:07:00;;;;;;;;;;;;;;;29.36;41.04;100724.19;5068117;28;1563;-33
2023/08/24 08:09:26;;;;;;;;;;;;;;;29.54;40.45;100722.81;5058297;28;1095;-29
2023/08/24 08:11:51;;;;;;;;;;;;;;;29.38;42.68;100729.41;5075005;28;1981;-34
2023/08/24 08:14:17;;;;;;;;;;;;;;;29.45;42.83;100720.25;5074616;28;1074;-35
2023/08/24 08:16:42;;;;;;;;;;;;;;;29.48;42.12;100720.91;5074655;28;1046;-36
2023/08/24 08:19:08;;;;;;;;;;;;;;;29.17;40.66;100704.88;5052161;28;1576;-31
2023/08/24 08:21:33;;;;;;;;;;;;;;;29.28;41.44;100716.22;5068999;28;2217;-34
2023/08/24 08:23:59;;;;;;;;;;;;;;;29.30;40.68;100709.53;5074054;28;1071;-35
2023/08/24 08:26:24;;;;;;;;;;;;;;;29.30;40.99;100716.81;5074261;28;1091;-32
2023/08/24 08:28:50;;;;;;;;;;;;;;;29.39;40.59;100712.09;5075677;28;1147;-31
2023/08/24 08:31:15;;;;;;;;;;;;;;;29.40;40.96;100709.19;5070286;28;1905;-27
2023/08/24 08:33:41;;;;;;;;;;;;;;;29.33;40.39;100706.44;5071456;28;1353;-30
2023/08/24 08:36:06;;;;;;;;;;;;;;;29.03;41.08;100711.25;5051883;28;1415;-32
2023/08/24 08:38:32;;;;;;;;;;;;;;;29.24;40.71;100707.66;5078198;28;1038;-31
2023/08/24 08:41:02;;;;;;;;;;;;;;;29.14;40.64;100709.84;5079058;28;1052;-33
2023/08/24 08:43:27;;;;;;;;;;;;;;;29.02;41.29;100705.00;5065088;28;1506;-30
2023/08/24 08:45:53;;;;;;;;;;;;;;;28.91;41.03;100719.03;5041984;28;1057;-29
2023/08/24 08:48:18;;;;;;;;;;;;;;;28.90;41.62;100712.78;5078229;28;1142;-34
2023/08/24 08:50:44;;;;;;;;;;;;;;;28.73;41.34;100715.78;5050877;28;2424;-33
2023/08/24 08:53:09;;;;;;;;;;;;;;;29.03;40.88;100713.97;5062001;28;1060;-31
2023/08/24 08:55:35;;;;;;;;;;;;;;;29.00;40.06;100714.31;5068317;28;1329;-34
2023/08/24 08:58:00;;;;;;;;;;;;;;;28.94;41.11;100713.22;5038717;28;1329;-30
2023/08/24 09:00:26;;;;;;;;;;;;;;;28.98;40.90;100717.22;5065904;28;1274;-30
2023/08/24 09:02:51;;;;;;;;;;;;;;;29.28;40.39;100713.50;5060550;28;1113;-31
2023/08/24 09:05:17;;;;;;;;;;;;;;;29.32;40.15;100709.34;5077008;28;1447;-34
2023/08/24 09:07:42;;;;;;;;;;;;;;;29.09;40.78;100713.16;5068586;28;1062;-32
2023/08/24 09:10:08;;;;;;;;;;;;;;;28.90;40.79;100710.06;5045852;28;1967;-29
2023/08/24 09:12:34;;;;;;;;;;;;;;;29.14;39.88;100720.69;5077790;28;1015;-32
2023/08/24 09:14:59;;;;;;;;;;;;;;;29.29;40.00;100724.13;5057860;28;1519;-34
2023/08/24 09:17:25;;;;;;;;;;;;;;;29.35;40.11;100722.50;5059440;28;1393;-33
2023/08/24 09:19:51;;;;;;;;;;;;;;;29.32;40.16;100715.63;5057242;28;1886;-34
2023/08/24 09:22:17;;;;;;;;;;;;;;;28.88;40.98;100716.72;5069554;28;1246;-30
2023/08/24 09:24:43;;;;;;;;;;;;;;;29.05;40.69;100718.13;5048100;28;1283;-36
2023/08/24 09:27:15;;;;;;;;;;;;;;;28.98;40.40;100705.59;5071279;28;1112;-33
2023/08/24 09:29:41;;;;;;;;;;;;;;;29.14;40.67;100723.41;5073414;28;1081;-31
2023/08/24 09:32:10;;;;;;;;;;;;;;;29.37;40.42;100711.44;5066759;28;1910;-32
2023/08/24 09:34:36;;;;;;;;;;;;;;;29.29;40.16;100717.88;5062703;28;1147;-32
2023/08/24 09:37:04;;;;;;;;;;;;;;;29.33;40.23;100711.84;5077807;28;1237;-33
2023/08/24 09:39:29;;;;;;;;;;;;;;;29.14;40.52;100716.13;5077663;28;1178;-31
2023/08/24 09:41:55;;;;;;;;;;;;;;;29.23;40.25;100718.69;5058243;28;1056;-31
2023/08/24 09:44:20;;;;;;;;;;;;;;;29.34;40.02;100713.53;5046707;28;1028;-31
2023/08/24 09:46:46;;;;;;;;;;;;;;;29.41;39.95;100701.91;5068975;28;991;-34
2023/08/24 09:49:11;;;;;;;;;;;;;;;29.39;40.28;100704.81;5071930;28;1143;-33
2023/08/24 09:51:38;;;;;;;;;;;;;;;29.36;40.40;100707.94;5052970;28;2660;-33
2023/08/24 09:54:08;;;;;;;;;;;;;;;29.18;40.36;100701.13;5074936;28;1104;-34
2023/08/24 09:56:37;;;;;;;;;;;;;;;29.09;40.24;100702.34;5050187;28;1284;-33
2023/08/24 09:59:21;;;;;;;;;;;;;;;28.92;40.44;100708.00;5047444;28;1247;-31
2023/08/24 10:01:47;;;;;;;;;;;;;;;29.04;40.31;100702.09;5076749;28;996;-33
2023/08/24 10:04:13;;;;;;;;;;;;;;;29.06;40.51;100706.25;5077057;28;1119;-31
2023/08/24 10:06:39;;;;;;;;;;;;;;;29.19;40.57;100701.97;5058706;28;1211;-31
2023/08/24 10:09:07;;;;;;;;;;;;;;;29.45;41.26;100706.72;5042500;28;962;-30
2023/08/24 10:11:36;;;;;;;;;;;;;;;29.45;41.79;100701.28;5053103;28;1911;-31
2023/08/24 10:14:01;;;;;;;;;;;;;;;29.14;42.00;100704.44;5059148;28;1096;-32
2023/08/24 10:16:27;;;;;;;;;;;;;;;29.18;41.66;100703.84;5076277;28;1036;-31
2023/08/24 10:18:52;;;;;;;;;;;;;;;29.37;41.14;100708.75;5076868;28;1091;-30
2023/08/24 10:21:18;;;;;;;;;;;;;;;29.32;41.15;100703.94;5060596;28;2218;-30
2023/08/24 10:23:43;;;;;;;;;;;;;;;29.15;41.91;100708.81;5058524;28;1032;-32
2023/08/24 10:26:09;;;;;;;;;;;;;;;29.21;41.82;100711.56;5058724;28;1171;-33
2023/08/24 10:28:34;;;;;;;;;;;;;;;29.49;41.19;100704.44;5058708;28;1206;-29
2023/08/24 10:31:00;;;;;;;;;;;;;;;29.61;41.09;100702.03;5057687;28;1905;-32
2023/08/24 10:33:26;;;;;;;;;;;;;;;29.59;41.38;100698.69;5058203;28;888;-29
2023/08/24 10:35:52;;;;;;;;;;;;;;;29.40;41.21;100692.94;5071812;28;1136;-37
2023/08/24 10:38:24;;;;;;;;;;;;;;;29.43;40.91;100697.94;5058681;28;1126;-33
2023/08/24 10:40:50;;;;;;;;;;;;;;;29.25;41.53;100689.50;5075623;28;1070;-33
2023/08/24 10:43:15;;;;;;;;;;;;;;;29.17;41.84;100694.06;5057949;28;1110;-30
2023/08/24 10:45:56;;;;;;;;;;;;;;;29.28;41.51;100697.25;5041080;28;904;-33
2023/08/24 10:48:23;;;;;;;;;;;;;;;29.40;41.29;100697.50;5076623;28;1418;-32
2023/08/24 10:51:07;;;;;;;;;;;;;;;29.81;41.12;100701.28;5066318;28;2397;-34
2023/08/24 10:53:44;;;;;;;;;;;;;;;29.61;41.37;100695.78;5069894;28;1095;-34
2023/08/24 10:56:13;;;;;;;;;;;;;;;29.59;40.74;100690.56;5070086;28;1118;-34
2023/08/24 10:58:38;;;;;;;;;;;;;;;29.58;40.20;100683.41;5058076;28;1131;-29
2023/08/24 11:01:04;;;;;;;;;;;;;;;29.39;40.30;100682.28;5075978;28;1200;-34
2023/08/24 11:03:32;;;;;;;;;;;;;;;29.38;40.37;100681.44;5075737;28;1118;-34
2023/08/24 11:05:58;;;;;;;;;;;;;;;29.57;39.68;100685.31;5075723;28;1004;-32
2023/08/24 11:08:44;;;;;;;;;;;;;;;29.45;39.90;100674.19;5068421;28;1184;-31
2023/08/24 11:11:22;;;;;;;;;;;;;;;29.73;40.15;100677.06;5067693;28;1917;-32
2023/08/24 11:14:06;;;;;;;;;;;;;;;29.51;40.53;100666.31;5049374;28;1136;-31
2023/08/24 11:16:58;;;;;;;;;;;;;;;29.64;39.48;100660.97;5075518;28;1218;-32
2023/08/24 11:19:23;;;;;;;;;;;;;;;29.86;39.45;100658.13;5037930;28;1346;-31
2023/08/24 11:21:49;;;;;;;;;;;;;;;29.90;38.83;100659.38;5041502;28;1812;-33
2023/08/24 11:24:15;;;;;;;;;;;;;;;29.82;41.03;100663.13;5055274;28;1745;-33
2023/08/24 11:26:44;;;;;;;;;;;;;;;29.84;40.09;100671.06;5066012;28;1095;-31
2023/08/24 11:29:09;;;;;;;;;;;;;;;29.87;41.07;100672.50;5062813;28;1120;-35
2023/08/24 11:31:35;;;;;;;;;;;;;;;29.85;40.32;100674.56;5075282;28;1905;-35
2023/08/24 11:34:01;;;;;;;;;;;;;;;29.82;40.23;100644.16;5056127;28;929;-35
2023/08/24 11:36:27;;;;;;;;;;;;;;;29.82;39.35;100627.88;5027971;28;1029;-31
2023/08/24 11:38:55;;;;;;;;;;;;;;;29.69;39.34;100627.84;5057601;28;1102;-34
2023/08/24 11:41:23;;;;;;;;;;;;;;;29.28;39.87;100624.09;5057347;28;1076;-36
2023/08/24 11:43:50;;;;;;;;;;;;;;;29.48;39.31;100620.66;5055551;28;1139;-35
2023/08/24 11:46:16;;;;;;;;;;;;;;;29.67;39.10;100606.34;5041041;28;1267;-32
2023/08/24 11:48:42;;;;;;;;;;;;;;;29.84;39.29;100611.41;5056477;28;1265;-34
2023/08/24 11:51:12;;;;;;;;;;;;;;;29.75;40.29;100612.59;5044237;28;2446;-36
2023/08/24 11:53:41;;;;;;;;;;;;;;;29.73;39.97;100601.97;5035900;28;1306;-32
2023/08/24 11:56:12;;;;;;;;;;;;;;;29.66;39.99;100591.09;5036964;28;1350;-32
2023/08/24 11:58:39;;;;;;;;;;;;;;;29.50;39.54;100595.00;5042749;28;1420;-35
2023/08/24 12:01:05;;;;;;;;;;;;;;;29.54;39.28;100607.13;5035076;28;1271;-33
2023/08/24 12:03:31;;;;;;;;;;;;;;;29.63;40.17;100609.69;5035617;28;1306;-31
2023/08/24 12:06:04;;;;;;;;;;;;;;;29.64;39.12;100611.34;5039467;28;1318;-32
2023/08/24 12:08:29;;;;;;;;;;;;;;;29.59;39.17;100601.13;5041927;28;1306;-31
2023/08/24 12:10:55;;;;;;;;;;;;;;;29.73;39.54;100601.16;5021683;28;1902;-31
2023/08/24 12:13:22;;;;;;;;;;;;;;;29.57;39.96;100605.88;5064115;28;1021;-35
2023/08/24 12:15:50;;;;;;;;;;;;;;;29.58;39.72;100600.22;5066349;28;1084;-34
2023/08/24 12:18:16;;;;;;;;;;;;;;;29.46;40.02;100601.88;5077981;28;1198;-32
2023/08/24 12:20:41;;;;;;;;;;;;;;;29.45;39.98;100598.31;5069263;28;2590;-34
2023/08/24 12:23:07;;;;;;;;;;;;;;;29.49;39.78;100600.63;5059333;28;1075;-34
2023/08/24 12:25:52;;;;;;;;;;;;;;;29.67;40.03;100605.50;5078153;28;1054;-33
2023/08/24 12:28:19;;;;;;;;;;;;;;;29.69;40.10;100590.72;5077795;28;1146;-35
2023/08/24 12:30:48;;;;;;;;;;;;;;;29.54;39.99;100603.56;5061105;28;1898;-33
2023/08/24 12:33:26;;;;;;;;;;;;;;;29.43;40.05;100603.09;5047189;28;904;-32
2023/08/24 12:35:51;;;;;;;;;;;;;;;29.50;40.37;100594.16;5073770;28;1442;-36
2023/08/24 12:38:17;;;;;;;;;;;;;;;29.49;40.67;100608.75;5078335;28;1043;-31
2023/08/24 12:40:43;;;;;;;;;;;;;;;29.48;40.17;100610.63;5078531;28;1071;-33
2023/08/24 12:43:08;;;;;;;;;;;;;;;29.39;40.28;100607.28;5078445;28;1157;-32
2023/08/24 12:45:34;;;;;;;;;;;;;;;29.29;40.43;100598.66;5067414;28;1035;-34